Riverside Municipal Airport
KRAL : now visible

Airfield :











YOU CAN JOIN US ON...

 
LOGIN :

Register | Disclaimer

   EN    FR    IT 

 









Legend :    VFR   Marginal VFR   IFR   Intensive IFR   Very Intensive IFR
Visi :
Ceiling :
>= 8 km
>= 3000ft
5 to 8 km
1000 to 3000 ft
1500m to 5 km
500 to 1000 ft
800 to 1500m
200 to 500 ft
< 800m
< 200 ft
Symbols :   Thunderstorms  Fog  Heavy snow  Heavy precipitations  Wind > 20 kt






- Airport Elevation : 819 ft


KRAL - Riverside Municipal

CURRENT METAR :
  • 150853Z AUTO 00000KT 10SM CLR 23/13 A2989 RMK AO2 SLP102 T02330133 58002

EXPIRED METARs :
  • 150753Z AUTO 28003KT 10SM CLR 24/14 A2990 RMK AO2 SLP105 T02390139 403830217
  • 150653Z AUTO 00000KT 10SM CLR 25/13 A2990 RMK AO2 SLP108 T02500133

TAF N/A
KZLA FIR / North America



MET'MAP, your aeronautical weather chart ! - Copyright ORBIFLY December 2007 - Disclaimer

ORBIFLY MET'MAP TEAM :

Programming & Development : Alexandra Zaïnal
Original concept : Baudouin d'Aumeries
Technical & hardware support : Manuel Goepfert
Assistance : Marc-Olivier Méhu




SOURCES & CREDITS :

   NOAA       Earth
Advisory